This is the latest recevied weather packets stored in our database for station/object HB9TJM-8. If no packets are shown the sender has not sent any weather packets the latest 10 day(s).
| Time | Temp. | Humidity | Pressure | Rain* | Wind** | Luminosity | Snow |
|---|---|---|---|---|---|---|---|
| 1777720519 | 20° C | 54% | 1022 hPa | 0 mm | - | 796 W/m² | - |
| 1777720519 | 20° C | 54% | 1022 hPa | 0 mm | - | 796 W/m² | - |
| 1777720212 | 19.44° C | 56% | 1022.1 hPa | 0 mm | - | 824 W/m² | - |
| 1777720212 | 19.44° C | 56% | 1022.1 hPa | 0 mm | - | 824 W/m² | - |
| 1777719904 | 18.89° C | 57% | 1022.1 hPa | 0 mm | - | 818 W/m² | - |
| 1777719597 | 19.44° C | 59% | 1022 hPa | 0 mm | - | 795 W/m² | - |
| 1777719289 | 18.89° C | 57% | 1022.9 hPa | 0 mm | - | 787 W/m² | - |
| 1777719289 | 18.89° C | 57% | 1022.9 hPa | 0 mm | - | 787 W/m² | - |
| 1777718982 | 18.89° C | 58% | 1021.8 hPa | 0 mm | - | 844 W/m² | - |
| 1777718674 | 18.33° C | 57% | 1022.8 hPa | 0 mm | - | 831 W/m² | - |
| 1777718674 | 18.33° C | 57% | 1022.8 hPa | 0 mm | - | 831 W/m² | - |
| 1777718366 | 18.89° C | 57% | 1022.5 hPa | 0 mm | - | 820 W/m² | - |
| 1777718059 | 18.33° C | 59% | 1022.4 hPa | 0 mm | - | 797 W/m² | - |
| 1777717752 | 17.78° C | 60% | 1022.6 hPa | 0 mm | - | 765 W/m² | - |
| 1777717751 | 17.78° C | 60% | 1022.6 hPa | 0 mm | - | 765 W/m² | - |
| 1777717137 | 17.78° C | 58% | 1022.6 hPa | 0 mm | - | 796 W/m² | - |
| 1777717137 | 17.78° C | 58% | 1022.6 hPa | 0 mm | - | 796 W/m² | - |
| 1777716829 | 17.78° C | 57% | 1022.9 hPa | 0 mm | - | 779 W/m² | - |
| 1777716522 | 18.33° C | 56% | 1022.8 hPa | 0 mm | - | 771 W/m² | - |
| 1777716215 | 17.78° C | 55% | 1022.7 hPa | 0 mm | - | 773 W/m² | - |
| 1777716215 | 17.78° C | 55% | 1022.7 hPa | 0 mm | - | 773 W/m² | - |
| 1777715599 | 17.22° C | 55% | 1023 hPa | 0 mm | - | 758 W/m² | - |
| 1777715599 | 17.22° C | 55% | 1023 hPa | 0 mm | - | 758 W/m² | - |
| 1777715291 | 17.78° C | 57% | 1023.1 hPa | 0 mm | - | 752 W/m² | - |
| 1777715291 | 17.78° C | 57% | 1023.1 hPa | 0 mm | - | 752 W/m² | - |
* Rain latest hour (hover to see other rain measurements)
** Current wind speed in m/s (hover to see current wind gust speed)